createdAt,value
2024-02-02T00:01:45.870Z,102281.53
2024-02-02T00:04:20.588Z,102277.22
2024-02-02T00:06:52.158Z,102285.81
2024-02-02T00:09:24.042Z,102282.38
2024-02-02T00:11:55.473Z,102258.41
2024-02-02T00:14:27.752Z,102247.22
2024-02-02T00:16:59.965Z,102254.13
2024-02-02T00:19:31.847Z,102252.34
2024-02-02T00:22:03.286Z,102249.00
2024-02-02T00:24:34.682Z,102256.00
2024-02-02T00:27:06.474Z,102258.66
2024-02-02T00:29:38.833Z,102266.47
2024-02-02T00:32:10.204Z,102262.16
2024-02-02T00:34:42.385Z,102259.69
2024-02-02T00:37:14.045Z,102263.25
2024-02-02T00:39:45.676Z,102258.22
2024-02-02T00:42:17.134Z,102264.22
2024-02-02T00:44:48.546Z,102258.22
2024-02-02T00:47:19.887Z,102269.47
2024-02-02T00:49:51.406Z,102279.81
2024-02-02T00:52:22.788Z,102264.34
2024-02-02T00:54:55.865Z,102276.25
2024-02-02T00:57:29.635Z,102279.50
2024-02-02T01:00:01.067Z,102284.56
2024-02-02T01:02:33.989Z,102280.22
2024-02-02T01:05:05.655Z,102281.78
2024-02-02T01:07:37.160Z,102279.06
2024-02-02T01:10:11.987Z,102274.72
2024-02-02T01:12:47.877Z,102275.44
2024-02-02T01:15:19.245Z,102276.25
2024-02-02T01:17:50.720Z,102271.09
2024-02-02T01:20:22.572Z,102275.34
2024-02-02T01:22:53.958Z,102267.63
2024-02-02T01:25:25.430Z,102276.13
2024-02-02T01:27:58.593Z,102254.72
2024-02-02T01:30:30.916Z,102259.75
2024-02-02T01:33:02.435Z,102256.19
2024-02-02T01:35:34.064Z,102250.97
2024-02-02T01:38:05.648Z,102245.84
2024-02-02T01:40:37.000Z,102246.78
2024-02-02T01:43:08.363Z,102230.63
2024-02-02T01:45:40.219Z,102228.91
2024-02-02T01:48:12.509Z,102234.06
2024-02-02T01:50:43.920Z,102228.00
2024-02-02T01:53:15.466Z,102232.25
2024-02-02T01:55:46.919Z,102227.94
2024-02-02T01:58:18.644Z,102229.69
2024-02-02T02:00:50.776Z,102230.50
2024-02-02T02:03:22.261Z,102209.88
2024-02-02T02:05:54.736Z,102212.44
2024-02-02T02:08:26.307Z,102203.03
2024-02-02T02:10:58.302Z,102197.81
2024-02-02T02:13:31.647Z,102203.75
2024-02-02T02:16:03.392Z,102200.28
2024-02-02T02:18:42.138Z,102194.31
2024-02-02T02:21:27.002Z,102201.91
2024-02-02T02:23:58.601Z,102203.69
2024-02-02T02:26:31.410Z,102208.78
2024-02-02T02:29:03.948Z,102200.19
2024-02-02T02:31:35.501Z,102197.56
2024-02-02T02:34:07.817Z,102195.84
2024-02-02T02:36:39.246Z,102191.56
2024-02-02T02:39:12.378Z,102186.31
2024-02-02T02:41:43.736Z,102188.00
2024-02-02T02:44:15.357Z,102190.50
2024-02-02T02:46:47.264Z,102183.69
2024-02-02T02:49:19.342Z,102177.59
2024-02-02T02:51:50.735Z,102163.09
2024-02-02T02:54:22.109Z,102155.44
2024-02-02T02:56:53.470Z,102152.81
2024-02-02T02:59:24.861Z,102143.41
2024-02-02T03:01:56.971Z,102156.16
2024-02-02T03:04:28.603Z,102157.03
2024-02-02T03:07:00.346Z,102156.22
2024-02-02T03:09:32.014Z,102157.03
2024-02-02T03:12:04.342Z,102157.81
2024-02-02T03:14:35.785Z,102152.66
2024-02-02T03:17:07.133Z,102164.59
2024-02-02T03:19:38.683Z,102156.91
2024-02-02T03:22:10.194Z,102148.38
2024-02-02T03:24:41.586Z,102146.69
2024-02-02T03:27:13.966Z,102147.31
2024-02-02T03:29:45.317Z,102142.19
2024-02-02T03:32:16.708Z,102137.13
2024-02-02T03:34:48.118Z,102133.78
2024-02-02T03:37:20.151Z,102136.31
2024-02-02T03:39:52.347Z,102131.16
2024-02-02T03:42:24.735Z,102128.63
2024-02-02T03:44:56.688Z,102129.47
2024-02-02T03:47:28.099Z,102126.06
2024-02-02T03:50:00.784Z,102127.69
2024-02-02T03:52:32.180Z,102123.47
2024-02-02T03:55:03.626Z,102127.69
2024-02-02T03:57:35.369Z,102126.75
2024-02-02T04:00:10.743Z,102119.00
2024-02-02T04:02:46.575Z,102120.56
2024-02-02T04:05:17.982Z,102118.91
2024-02-02T04:07:49.360Z,102125.69
2024-02-02T04:10:20.695Z,102110.28
2024-02-02T04:12:52.268Z,102096.44
2024-02-02T04:15:23.573Z,102086.91
2024-02-02T04:17:55.065Z,102092.91
2024-02-02T04:20:26.512Z,102087.84
2024-02-02T04:22:58.128Z,102079.22
2024-02-02T04:25:29.468Z,102078.34
2024-02-02T04:28:01.796Z,102077.56
2024-02-02T04:30:36.481Z,102077.44
2024-02-02T04:33:08.154Z,102079.13
2024-02-02T04:35:39.532Z,102079.06
2024-02-02T04:38:10.896Z,102066.22
2024-02-02T04:40:42.209Z,102054.28
2024-02-02T04:43:13.894Z,102055.94
2024-02-02T04:45:46.248Z,102055.09
2024-02-02T04:48:17.757Z,102054.16
2024-02-02T04:50:49.255Z,102047.22
2024-02-02T04:53:28.134Z,102042.13
2024-02-02T04:55:59.477Z,102035.28
2024-02-02T04:58:31.295Z,102032.63
2024-02-02T05:01:02.661Z,102047.19
2024-02-02T05:03:36.150Z,102043.78
2024-02-02T05:06:08.807Z,102049.78
2024-02-02T05:08:40.134Z,102043.00
2024-02-02T05:11:14.295Z,102029.19
2024-02-02T05:13:45.644Z,102026.56
2024-02-02T05:16:16.970Z,102017.94
2024-02-02T05:18:48.678Z,102012.69
2024-02-02T05:21:20.145Z,101997.38
2024-02-02T05:23:51.605Z,101992.13
2024-02-02T05:26:22.980Z,101994.63
2024-02-02T05:28:54.596Z,101981.78
2024-02-02T05:31:26.200Z,101983.56
2024-02-02T05:33:57.669Z,101996.41
2024-02-02T05:36:29.109Z,101994.75
2024-02-02T05:39:00.549Z,101996.34
2024-02-02T05:41:32.002Z,101987.03
2024-02-02T05:44:03.589Z,101981.94
2024-02-02T05:46:37.930Z,101976.94
2024-02-02T05:49:10.414Z,101952.94
2024-02-02T05:51:42.260Z,101938.47
2024-02-02T05:54:13.673Z,101922.09
2024-02-02T05:56:45.176Z,101905.91
2024-02-02T05:59:16.574Z,101928.25
2024-02-02T06:01:48.024Z,101929.19
2024-02-02T06:04:19.937Z,101913.13
2024-02-02T06:06:51.618Z,101928.59
2024-02-02T06:09:23.361Z,101942.34
2024-02-02T06:11:54.835Z,101948.31
2024-02-02T06:14:28.667Z,101932.06
2024-02-02T06:17:00.135Z,101916.63
2024-02-02T06:19:31.531Z,101935.47
2024-02-02T06:22:04.181Z,101937.25
2024-02-02T06:24:35.754Z,101927.88
2024-02-02T06:27:07.264Z,101941.50
2024-02-02T06:29:38.870Z,101935.56
2024-02-02T06:32:10.241Z,101938.16
2024-02-02T06:34:42.129Z,101936.34
2024-02-02T06:37:13.465Z,101932.06
2024-02-02T06:39:47.455Z,101923.50
2024-02-02T06:42:22.276Z,101920.22
2024-02-02T06:44:56.938Z,101918.53
2024-02-02T06:47:28.435Z,101924.63
2024-02-02T06:50:00.127Z,101900.59
2024-02-02T06:52:33.516Z,101909.19
2024-02-02T06:55:05.243Z,101916.03
2024-02-02T06:57:36.702Z,101908.38
2024-02-02T07:00:14.538Z,101910.75
2024-02-02T07:02:48.244Z,101902.16
2024-02-02T07:05:21.083Z,101892.72
2024-02-02T07:07:53.387Z,101893.53
2024-02-02T07:10:24.854Z,101884.97
2024-02-02T07:13:00.761Z,101891.66
2024-02-02T07:15:41.463Z,101881.38
2024-02-02T07:18:48.426Z,101881.38
2024-02-02T07:21:19.985Z,101884.84
2024-02-02T07:23:52.504Z,101876.22
2024-02-02T07:26:29.387Z,101884.63
2024-02-02T07:29:06.275Z,101883.63
2024-02-02T07:31:46.269Z,101885.22
2024-02-02T07:34:44.025Z,101870.63
2024-02-02T07:37:47.210Z,101863.81
2024-02-02T07:41:00.795Z,101861.09
2024-02-02T07:43:34.217Z,101864.69
2024-02-02T07:46:10.671Z,101863.56
2024-02-02T07:48:44.939Z,101856.75
2024-02-02T07:51:19.762Z,101854.00
2024-02-02T07:53:51.671Z,101858.28
2024-02-02T07:56:26.151Z,101853.13
2024-02-02T07:58:59.986Z,101846.09
2024-02-02T08:01:34.370Z,101849.59
2024-02-02T08:04:06.138Z,101851.16
2024-02-02T08:06:37.808Z,101825.28
2024-02-02T08:09:10.437Z,101834.69
2024-02-02T08:11:41.854Z,101822.66
2024-02-02T08:14:13.225Z,101805.50
2024-02-02T08:16:44.717Z,101807.09
2024-02-02T08:19:16.174Z,101811.31
2024-02-02T08:21:47.886Z,101812.97
2024-02-02T08:24:20.608Z,101800.06
2024-02-02T08:26:52.076Z,101798.19
2024-02-02T08:29:23.493Z,101795.53
2024-02-02T08:31:55.548Z,101788.56
2024-02-02T08:34:27.109Z,101794.41
2024-02-02T08:37:00.840Z,101796.91
2024-02-02T08:39:35.586Z,101795.94
2024-02-02T08:42:17.598Z,101782.91
2024-02-02T08:44:53.832Z,101776.91
2024-02-02T08:47:30.289Z,101776.91
2024-02-02T08:50:02.682Z,101791.38
2024-02-02T08:52:40.010Z,101783.66
2024-02-02T08:55:35.617Z,101787.91
2024-02-02T08:58:10.707Z,101786.94
2024-02-02T09:00:43.413Z,101762.75
2024-02-02T09:03:45.790Z,101774.72
2024-02-02T09:06:39.131Z,101770.53
2024-02-02T09:09:18.432Z,101775.53
2024-02-02T09:11:51.637Z,101772.91
2024-02-02T09:14:24.832Z,101763.47
2024-02-02T09:16:58.077Z,101761.53
2024-02-02T09:19:43.321Z,101755.50
2024-02-02T09:22:19.215Z,101757.91
2024-02-02T09:24:54.549Z,101757.91
2024-02-02T09:27:37.585Z,101761.91
2024-02-02T09:30:21.765Z,101760.88
2024-02-02T09:32:53.264Z,101761.72
2024-02-02T09:35:27.533Z,101749.59
2024-02-02T09:37:59.120Z,101743.53
2024-02-02T09:40:56.121Z,101749.44
2024-02-02T09:44:01.929Z,101738.09
2024-02-02T09:46:57.702Z,101737.88
2024-02-02T09:49:56.760Z,101751.59
2024-02-02T09:52:53.459Z,101755.78
2024-02-02T09:55:53.444Z,101749.56
2024-02-02T09:58:47.039Z,101757.88
2024-02-02T10:01:37.340Z,101753.56
2024-02-02T10:04:17.459Z,101756.97
2024-02-02T10:07:16.789Z,101765.47
2024-02-02T10:10:18.001Z,101756.91
2024-02-02T10:13:04.775Z,101752.50
2024-02-02T10:15:59.631Z,101747.63
2024-02-02T10:18:49.873Z,101743.47
2024-02-02T10:21:41.050Z,101736.38
2024-02-02T10:24:27.544Z,101742.41
2024-02-02T10:27:26.446Z,101722.66
2024-02-02T10:30:21.449Z,101720.84
2024-02-02T10:33:35.803Z,101715.69
2024-02-02T10:36:37.363Z,101724.25
2024-02-02T10:39:44.443Z,101705.22
2024-02-02T10:42:51.380Z,101710.25
2024-02-02T10:45:34.559Z,101706.72
2024-02-02T10:48:16.790Z,101701.41
2024-02-02T10:51:13.719Z,101702.03
2024-02-02T10:53:57.447Z,101702.16
2024-02-02T10:56:39.117Z,101708.06
2024-02-02T10:59:41.765Z,101700.31
2024-02-02T11:02:33.476Z,101707.78
2024-02-02T11:05:25.352Z,101702.78
2024-02-02T11:08:02.692Z,101701.06
2024-02-02T11:10:59.465Z,101702.50
2024-02-02T11:13:39.699Z,101700.00
2024-02-02T11:16:31.735Z,101704.25
2024-02-02T11:19:20.275Z,101685.44
2024-02-02T11:22:06.844Z,101690.59
2024-02-02T11:25:00.829Z,101689.63
2024-02-02T11:27:43.797Z,101676.53
2024-02-02T11:30:36.634Z,101685.88
2024-02-02T11:33:33.405Z,101680.72
2024-02-02T11:36:32.668Z,101670.41
2024-02-02T11:39:29.128Z,101682.28
2024-02-02T11:42:02.478Z,101683.00
2024-02-02T11:44:35.821Z,101667.53
2024-02-02T11:47:08.722Z,101670.69
2024-02-02T11:49:47.884Z,101663.69
2024-02-02T11:52:33.633Z,101653.50
2024-02-02T11:55:21.291Z,101653.50
2024-02-02T11:58:08.852Z,101638.72
2024-02-02T12:01:01.650Z,101655.09
2024-02-02T12:03:51.560Z,101654.03
2024-02-02T12:06:25.702Z,101642.53
2024-02-02T12:09:15.981Z,101630.31
2024-02-02T12:11:53.054Z,101632.06
2024-02-02T12:14:36.550Z,101642.38
2024-02-02T12:17:11.916Z,101621.84
2024-02-02T12:19:44.318Z,101619.16
2024-02-02T12:22:16.055Z,101617.50
2024-02-02T12:24:48.146Z,101626.69
2024-02-02T12:27:21.582Z,101607.03
2024-02-02T12:29:53.231Z,101603.69
2024-02-02T12:32:24.712Z,101610.38
2024-02-02T12:34:56.301Z,101607.75
2024-02-02T12:37:27.866Z,101602.56
2024-02-02T12:40:00.505Z,101599.91
2024-02-02T12:42:43.649Z,101594.75
2024-02-02T12:45:16.446Z,101580.13
2024-02-02T12:47:52.529Z,101595.59
2024-02-02T12:50:26.653Z,101599.06
2024-02-02T12:52:59.519Z,101586.09
2024-02-02T12:55:30.875Z,101582.63
2024-02-02T12:58:02.699Z,101584.28
2024-02-02T13:00:34.353Z,101580.72
2024-02-02T13:03:06.352Z,101584.13
2024-02-02T13:05:38.619Z,101584.97
2024-02-02T13:08:10.488Z,101581.47
2024-02-02T13:10:47.328Z,101573.69
2024-02-02T13:13:18.918Z,101585.78
2024-02-02T13:15:50.295Z,101581.47
2024-02-02T13:18:23.839Z,101575.66
2024-02-02T13:20:56.157Z,101578.97
2024-02-02T13:23:31.092Z,101583.22
2024-02-02T13:26:05.204Z,101574.34
2024-02-02T13:28:49.784Z,101566.53
2024-02-02T13:31:23.433Z,101562.97
2024-02-02T13:33:59.393Z,101554.28
2024-02-02T13:36:33.757Z,101555.03
2024-02-02T13:39:05.584Z,101548.91
2024-02-02T13:41:38.327Z,101533.28
2024-02-02T13:44:12.055Z,101511.56
2024-02-02T13:46:46.980Z,101512.16
2024-02-02T13:49:34.331Z,101518.84
2024-02-02T13:52:06.859Z,101511.00
2024-02-02T13:54:39.269Z,101515.50
2024-02-02T13:57:15.766Z,101516.16
2024-02-02T13:59:49.953Z,101501.53
2024-02-02T14:02:21.538Z,101498.69
2024-02-02T14:04:53.357Z,101506.34
2024-02-02T14:07:24.896Z,101504.59
2024-02-02T14:10:07.281Z,101489.78
2024-02-02T14:12:39.831Z,101496.78
2024-02-02T14:15:11.615Z,101494.22
2024-02-02T14:17:43.002Z,101495.19
2024-02-02T14:20:16.020Z,101495.84
2024-02-02T14:22:48.101Z,101487.47
2024-02-02T14:25:27.768Z,101488.13
2024-02-02T14:27:59.132Z,101502.69
2024-02-02T14:30:30.523Z,101494.22
2024-02-02T14:33:13.904Z,101496.59
2024-02-02T14:35:54.994Z,101488.81
2024-02-02T14:38:27.652Z,101486.38
2024-02-02T14:40:59.072Z,101495.69
2024-02-02T14:43:30.415Z,101488.84
2024-02-02T14:46:01.834Z,101485.53
2024-02-02T14:48:34.235Z,101482.16
2024-02-02T14:51:05.987Z,101488.06
2024-02-02T14:53:37.575Z,101488.06
2024-02-02T14:56:09.053Z,101493.22
2024-02-02T14:58:40.915Z,101493.28
2024-02-02T15:01:15.005Z,101495.09
2024-02-02T15:03:46.512Z,101516.91
2024-02-02T15:06:17.969Z,101508.44
2024-02-02T15:08:49.412Z,101514.56
2024-02-02T15:11:20.785Z,101506.00
2024-02-02T15:13:52.193Z,101493.03
2024-02-02T15:16:23.661Z,101499.84
2024-02-02T15:18:55.073Z,101511.09
2024-02-02T15:21:26.634Z,101517.91
2024-02-02T15:23:58.437Z,101514.44
2024-02-02T15:26:29.847Z,101511.84
2024-02-02T15:29:01.166Z,101528.97
2024-02-02T15:31:33.870Z,101522.16
2024-02-02T15:34:07.939Z,101510.06
2024-02-02T15:36:40.085Z,101498.25
2024-02-02T15:39:22.864Z,101504.34
2024-02-02T15:42:01.559Z,101522.66
2024-02-02T15:44:34.935Z,101513.31
2024-02-02T15:47:07.127Z,101500.50
2024-02-02T15:49:38.838Z,101485.88
2024-02-02T15:52:10.296Z,101481.53
2024-02-02T15:54:44.314Z,101494.41
2024-02-02T15:57:16.111Z,101496.19
2024-02-02T15:59:47.689Z,101485.03
2024-02-02T16:02:19.702Z,101495.50
2024-02-02T16:05:00.715Z,101480.72
2024-02-02T16:07:32.790Z,101493.84
2024-02-02T16:10:04.834Z,101483.53
2024-02-02T16:12:39.341Z,101481.69
2024-02-02T16:15:10.863Z,101480.88
2024-02-02T16:17:42.691Z,101488.69
2024-02-02T16:20:14.244Z,101490.34
2024-02-02T16:22:46.434Z,101492.03
2024-02-02T16:25:20.716Z,101491.34
2024-02-02T16:27:52.203Z,101496.34
2024-02-02T16:30:24.004Z,101497.19
2024-02-02T16:32:55.455Z,101516.97
2024-02-02T16:35:26.943Z,101509.31
2024-02-02T16:38:00.966Z,101493.00
2024-02-02T16:40:32.420Z,101488.00
2024-02-02T16:43:03.841Z,101494.00
2024-02-02T16:45:35.252Z,101485.59
2024-02-02T16:48:07.733Z,101502.66
2024-02-02T16:50:39.222Z,101499.00
2024-02-02T16:53:10.623Z,101495.69
2024-02-02T16:55:42.088Z,101494.00
2024-02-02T16:58:13.579Z,101497.50
2024-02-02T17:00:45.056Z,101485.34
2024-02-02T17:03:16.523Z,101477.63
2024-02-02T17:05:48.118Z,101492.09
2024-02-02T17:08:19.772Z,101486.09
2024-02-02T17:10:52.508Z,101496.44
2024-02-02T17:13:23.870Z,101490.53
2024-02-02T17:15:56.104Z,101487.00
2024-02-02T17:18:27.589Z,101488.84
2024-02-02T17:20:58.966Z,101496.44
2024-02-02T17:23:30.528Z,101486.03
2024-02-02T17:26:02.435Z,101480.03
2024-02-02T17:28:33.746Z,101487.94
2024-02-02T17:31:05.049Z,101494.00
2024-02-02T17:33:36.870Z,101485.19
2024-02-02T17:36:12.735Z,101489.25
2024-02-02T17:38:44.679Z,101491.09
2024-02-02T17:41:17.772Z,101492.03
2024-02-02T17:43:49.101Z,101500.66
2024-02-02T17:46:20.653Z,101503.09
2024-02-02T17:48:52.282Z,101504.06
2024-02-02T17:51:24.360Z,101509.13
2024-02-02T17:53:55.722Z,101497.00
2024-02-02T17:56:27.822Z,101503.84
2024-02-02T17:58:59.216Z,101508.25
2024-02-02T18:01:30.730Z,101517.63
2024-02-02T18:04:02.408Z,101525.38
2024-02-02T18:06:34.194Z,101533.09
2024-02-02T18:09:06.552Z,101522.03
2024-02-02T18:11:38.149Z,101530.53
2024-02-02T18:14:09.825Z,101526.31
2024-02-02T18:16:41.251Z,101526.31
2024-02-02T18:19:12.722Z,101531.38
2024-02-02T18:21:44.465Z,101534.03
2024-02-02T18:24:16.031Z,101536.53
2024-02-02T18:26:47.348Z,101532.22
2024-02-02T18:29:18.695Z,101525.38
2024-02-02T18:31:50.297Z,101526.31
2024-02-02T18:34:21.708Z,101533.94
2024-02-02T18:36:53.127Z,101530.47
2024-02-02T18:39:24.540Z,101533.09
2024-02-02T18:41:55.952Z,101544.25
2024-02-02T18:44:27.386Z,101532.97
2024-02-02T18:46:58.693Z,101532.97
2024-02-02T18:49:31.343Z,101532.13
2024-02-02T18:52:02.846Z,101527.81
2024-02-02T18:54:34.280Z,101517.47
2024-02-02T18:57:07.099Z,101520.91
2024-02-02T18:59:38.621Z,101527.72
2024-02-02T19:02:10.415Z,101519.88
2024-02-02T19:04:43.219Z,101505.34
2024-02-02T19:07:15.043Z,101526.81
2024-02-02T19:09:46.519Z,101523.47
2024-02-02T19:12:17.943Z,101521.56
2024-02-02T19:14:49.386Z,101507.81
2024-02-02T19:17:20.719Z,101503.50
2024-02-02T19:19:52.326Z,101493.19
2024-02-02T19:22:24.062Z,101493.19
2024-02-02T19:24:55.632Z,101506.84
2024-02-02T19:27:32.367Z,101512.84
2024-02-02T19:30:05.383Z,101511.09
2024-02-02T19:32:36.859Z,101524.00
2024-02-02T19:35:08.588Z,101511.09
2024-02-02T19:37:39.943Z,101513.59
2024-02-02T19:40:13.202Z,101492.00
2024-02-02T19:42:44.586Z,101496.19
2024-02-02T19:45:16.048Z,101488.34
2024-02-02T19:47:47.464Z,101505.50
2024-02-02T19:50:19.048Z,101495.34
2024-02-02T19:52:50.440Z,101497.88
2024-02-02T19:55:28.098Z,101502.28
2024-02-02T19:57:59.403Z,101497.94
2024-02-02T20:00:30.981Z,101499.50
2024-02-02T20:03:02.576Z,101489.88
2024-02-02T20:05:34.416Z,101494.22
2024-02-02T20:08:06.228Z,101497.53
2024-02-02T20:10:37.560Z,101507.84
2024-02-02T20:13:08.982Z,101501.75
2024-02-02T20:15:40.601Z,101499.13
2024-02-02T20:18:12.084Z,101502.44
2024-02-02T20:20:44.036Z,101510.84
2024-02-02T20:23:15.817Z,101493.69
2024-02-02T20:25:47.819Z,101486.53
2024-02-02T20:28:19.230Z,101487.38
2024-02-02T20:30:50.640Z,101487.38
2024-02-02T20:33:22.248Z,101482.88
2024-02-02T20:35:53.604Z,101486.19
2024-02-02T20:38:26.131Z,101480.94
2024-02-02T20:40:57.451Z,101478.22
2024-02-02T20:43:28.842Z,101461.72
2024-02-02T20:46:01.847Z,101468.53
2024-02-02T20:48:33.361Z,101452.91
2024-02-02T20:51:05.974Z,101460.53
2024-02-02T20:53:37.383Z,101474.94
2024-02-02T20:56:08.874Z,101468.94
2024-02-02T20:58:40.239Z,101467.13
2024-02-02T21:01:12.244Z,101461.88
2024-02-02T21:03:43.731Z,101471.22
2024-02-02T21:06:16.054Z,101470.31
2024-02-02T21:08:47.661Z,101477.88
2024-02-02T21:11:20.173Z,101468.38
2024-02-02T21:13:51.556Z,101478.53
2024-02-02T21:16:23.237Z,101469.06
2024-02-02T21:18:57.267Z,101469.88
2024-02-02T21:21:28.926Z,101472.38
2024-02-02T21:24:00.429Z,101467.22
2024-02-02T21:26:32.029Z,101471.38
2024-02-02T21:29:03.406Z,101461.84
2024-02-02T21:31:34.782Z,101457.53
2024-02-02T21:34:06.551Z,101463.34
2024-02-02T21:36:38.132Z,101452.22
2024-02-02T21:39:12.386Z,101447.84
2024-02-02T21:41:44.165Z,101439.09
2024-02-02T21:44:17.111Z,101449.38
2024-02-02T21:46:48.507Z,101447.53
2024-02-02T21:49:20.010Z,101455.19
2024-02-02T21:51:53.200Z,101442.38
2024-02-02T21:54:24.639Z,101436.09
2024-02-02T21:56:56.010Z,101439.41
2024-02-02T21:59:27.355Z,101444.41
2024-02-02T22:01:58.749Z,101433.16
2024-02-02T22:04:30.234Z,101435.00
2024-02-02T22:07:04.284Z,101435.00
2024-02-02T22:09:35.764Z,101434.16
2024-02-02T22:12:07.513Z,101436.66
2024-02-02T22:14:44.986Z,101439.97
2024-02-02T22:17:17.297Z,101433.91
2024-02-02T22:19:48.695Z,101441.66
2024-02-02T22:22:20.109Z,101446.72
2024-02-02T22:24:52.188Z,101436.28
2024-02-02T22:27:24.313Z,101439.59
2024-02-02T22:29:57.011Z,101446.47
2024-02-02T22:32:28.362Z,101443.69
2024-02-02T22:35:02.127Z,101442.78
2024-02-02T22:37:33.546Z,101441.84
2024-02-02T22:40:08.396Z,101438.50
2024-02-02T22:42:39.861Z,101443.50
2024-02-02T22:45:12.813Z,101434.09
2024-02-02T22:47:44.341Z,101433.06
2024-02-02T22:50:17.481Z,101443.34
2024-02-02T22:52:48.904Z,101437.34
2024-02-02T22:55:20.430Z,101437.06
2024-02-02T22:57:53.197Z,101437.88
2024-02-02T23:00:24.720Z,101437.06
2024-02-02T23:02:56.112Z,101424.06
2024-02-02T23:05:27.469Z,101412.72
2024-02-02T23:07:58.819Z,101408.44
2024-02-02T23:10:30.148Z,101404.97
2024-02-02T23:13:01.616Z,101416.88
2024-02-02T23:15:33.052Z,101414.28
2024-02-02T23:18:05.829Z,101424.53
2024-02-02T23:20:37.277Z,101438.19
2024-02-02T23:23:09.825Z,101424.31
2024-02-02T23:25:41.353Z,101424.31
2024-02-02T23:28:13.480Z,101431.91
2024-02-02T23:30:46.837Z,101435.22
2024-02-02T23:33:19.884Z,101425.81
2024-02-02T23:35:52.245Z,101432.56
2024-02-02T23:38:24.182Z,101422.31
2024-02-02T23:40:56.700Z,101422.13
2024-02-02T23:43:28.207Z,101409.22
2024-02-02T23:45:59.619Z,101425.63
2024-02-02T23:48:31.798Z,101417.88
2024-02-02T23:51:05.721Z,101408.38
2024-02-02T23:53:37.157Z,101420.47
2024-02-02T23:56:08.633Z,101413.44
2024-02-02T23:58:40.121Z,101406.63
